sensor_id;sensor_type;location;lat;lon;timestamp;temperature;humidity
17845;DHT22;9047;53.486;10.218;2023-05-02T00:01:27;12.10;99.90
17845;DHT22;9047;53.486;10.218;2023-05-02T00:04:01;12.10;99.90
17845;DHT22;9047;53.486;10.218;2023-05-02T00:06:29;12.00;99.90
17845;DHT22;9047;53.486;10.218;2023-05-02T00:08:58;12.00;99.90
17845;DHT22;9047;53.486;10.218;2023-05-02T00:11:28;11.80;99.90
17845;DHT22;9047;53.486;10.218;2023-05-02T00:13:59;11.80;99.90
17845;DHT22;9047;53.486;10.218;2023-05-02T00:16:26;11.90;99.90
17845;DHT22;9047;53.486;10.218;2023-05-02T00:18:53;11.70;99.90
17845;DHT22;9047;53.486;10.218;2023-05-02T00:21:23;11.60;99.90
17845;DHT22;9047;53.486;10.218;2023-05-02T00:23:53;11.60;99.90
17845;DHT22;9047;53.486;10.218;2023-05-02T00:26:28;11.50;99.90
17845;DHT22;9047;53.486;10.218;2023-05-02T00:28:56;11.60;99.90
17845;DHT22;9047;53.486;10.218;2023-05-02T00:31:26;11.60;99.90
17845;DHT22;9047;53.486;10.218;2023-05-02T00:33:53;11.50;99.90
17845;DHT22;9047;53.486;10.218;2023-05-02T00:36:24;11.50;99.90
17845;DHT22;9047;53.486;10.218;2023-05-02T00:38:52;11.50;99.90
17845;DHT22;9047;53.486;10.218;2023-05-02T00:41:21;11.40;99.90
17845;DHT22;9047;53.486;10.218;2023-05-02T00:43:49;11.50;99.90
17845;DHT22;9047;53.486;10.218;2023-05-02T00:46:16;11.40;99.90
17845;DHT22;9047;53.486;10.218;2023-05-02T00:48:43;11.40;99.90
17845;DHT22;9047;53.486;10.218;2023-05-02T00:51:11;11.40;99.90
17845;DHT22;9047;53.486;10.218;2023-05-02T00:53:40;11.40;99.90
17845;DHT22;9047;53.486;10.218;2023-05-02T00:56:08;11.50;99.90
17845;DHT22;9047;53.486;10.218;2023-05-02T00:58:36;11.50;99.90
17845;DHT22;9047;53.486;10.218;2023-05-02T01:01:14;11.50;99.90
17845;DHT22;9047;53.486;10.218;2023-05-02T01:03:52;11.50;99.90
17845;DHT22;9047;53.486;10.218;2023-05-02T01:06:30;11.60;99.90
17845;DHT22;9047;53.486;10.218;2023-05-02T01:09:20;11.60;99.90
17845;DHT22;9047;53.486;10.218;2023-05-02T01:11:55;11.60;99.90
17845;DHT22;9047;53.486;10.218;2023-05-02T01:14:32;11.60;99.90
17845;DHT22;9047;53.486;10.218;2023-05-02T01:17:02;11.60;99.90
17845;DHT22;9047;53.486;10.218;2023-05-02T01:19:33;11.60;99.90
17845;DHT22;9047;53.486;10.218;2023-05-02T01:22:04;11.60;99.90
17845;DHT22;9047;53.486;10.218;2023-05-02T01:24:40;11.50;99.90
17845;DHT22;9047;53.486;10.218;2023-05-02T01:27:17;11.50;99.90
17845;DHT22;9047;53.486;10.218;2023-05-02T01:29:53;11.50;99.90
17845;DHT22;9047;53.486;10.218;2023-05-02T01:32:29;11.60;99.90
17845;DHT22;9047;53.486;10.218;2023-05-02T01:34:59;11.60;99.90
17845;DHT22;9047;53.486;10.218;2023-05-02T01:37:28;11.60;99.90
17845;DHT22;9047;53.486;10.218;2023-05-02T01:39:58;11.60;99.90
17845;DHT22;9047;53.486;10.218;2023-05-02T01:42:26;11.60;99.90
17845;DHT22;9047;53.486;10.218;2023-05-02T01:44:57;11.60;99.90
17845;DHT22;9047;53.486;10.218;2023-05-02T01:47:27;11.60;99.90
17845;DHT22;9047;53.486;10.218;2023-05-02T01:49:57;11.60;99.90
17845;DHT22;9047;53.486;10.218;2023-05-02T01:52:26;11.60;99.90
17845;DHT22;9047;53.486;10.218;2023-05-02T01:54:54;11.60;99.90
17845;DHT22;9047;53.486;10.218;2023-05-02T01:57:25;11.70;99.90
17845;DHT22;9047;53.486;10.218;2023-05-02T01:59:59;11.70;99.90
17845;DHT22;9047;53.486;10.218;2023-05-02T02:02:29;11.70;99.90
17845;DHT22;9047;53.486;10.218;2023-05-02T02:04:56;11.70;99.90
17845;DHT22;9047;53.486;10.218;2023-05-02T02:07:25;11.70;99.90
17845;DHT22;9047;53.486;10.218;2023-05-02T02:09:52;11.70;99.90
17845;DHT22;9047;53.486;10.218;2023-05-02T02:12:25;11.70;99.90
17845;DHT22;9047;53.486;10.218;2023-05-02T02:14:57;11.60;99.90
17845;DHT22;9047;53.486;10.218;2023-05-02T02:17:30;11.60;99.90
17845;DHT22;9047;53.486;10.218;2023-05-02T02:20:02;11.60;99.90
17845;DHT22;9047;53.486;10.218;2023-05-02T02:22:37;11.50;99.90
17845;DHT22;9047;53.486;10.218;2023-05-02T02:25:09;11.50;99.90
17845;DHT22;9047;53.486;10.218;2023-05-02T02:27:43;11.40;99.90
17845;DHT22;9047;53.486;10.218;2023-05-02T02:30:24;11.40;99.90
17845;DHT22;9047;53.486;10.218;2023-05-02T02:32:52;11.30;99.90
17845;DHT22;9047;53.486;10.218;2023-05-02T02:35:19;11.20;99.90
17845;DHT22;9047;53.486;10.218;2023-05-02T02:37:53;11.30;99.90
17845;DHT22;9047;53.486;10.218;2023-05-02T02:40:29;11.20;99.90
17845;DHT22;9047;53.486;10.218;2023-05-02T02:43:02;11.20;99.90
17845;DHT22;9047;53.486;10.218;2023-05-02T02:45:37;11.20;99.90
17845;DHT22;9047;53.486;10.218;2023-05-02T02:48:27;11.20;99.90
17845;DHT22;9047;53.486;10.218;2023-05-02T02:51:08;11.10;99.90
17845;DHT22;9047;53.486;10.218;2023-05-02T02:53:49;11.10;99.90
17845;DHT22;9047;53.486;10.218;2023-05-02T02:56:27;11.10;99.90
17845;DHT22;9047;53.486;10.218;2023-05-02T02:59:01;11.10;99.90
17845;DHT22;9047;53.486;10.218;2023-05-02T03:01:31;11.00;99.90
17845;DHT22;9047;53.486;10.218;2023-05-02T03:04:04;11.00;99.90
17845;DHT22;9047;53.486;10.218;2023-05-02T03:06:33;11.00;99.90
17845;DHT22;9047;53.486;10.218;2023-05-02T03:09:02;11.00;99.90
17845;DHT22;9047;53.486;10.218;2023-05-02T03:11:30;11.00;99.90
17845;DHT22;9047;53.486;10.218;2023-05-02T03:13:57;10.90;99.90
17845;DHT22;9047;53.486;10.218;2023-05-02T03:16:37;10.90;99.90
17845;DHT22;9047;53.486;10.218;2023-05-02T03:19:07;10.90;99.90
17845;DHT22;9047;53.486;10.218;2023-05-02T03:21:38;10.90;99.90
17845;DHT22;9047;53.486;10.218;2023-05-02T03:24:06;10.90;99.90
17845;DHT22;9047;53.486;10.218;2023-05-02T03:26:33;10.80;99.90
17845;DHT22;9047;53.486;10.218;2023-05-02T03:29:00;10.70;99.90
17845;DHT22;9047;53.486;10.218;2023-05-02T03:31:29;10.40;99.90
17845;DHT22;9047;53.486;10.218;2023-05-02T03:33:58;10.20;99.90
17845;DHT22;9047;53.486;10.218;2023-05-02T03:36:28;10.00;99.90
17845;DHT22;9047;53.486;10.218;2023-05-02T03:38:55;9.80;99.90
17845;DHT22;9047;53.486;10.218;2023-05-02T03:41:23;9.70;99.90
17845;DHT22;9047;53.486;10.218;2023-05-02T03:43:50;9.60;99.90
17845;DHT22;9047;53.486;10.218;2023-05-02T03:46:17;9.60;99.90
17845;DHT22;9047;53.486;10.218;2023-05-02T03:48:45;9.50;99.90
17845;DHT22;9047;53.486;10.218;2023-05-02T03:51:18;9.40;99.90
17845;DHT22;9047;53.486;10.218;2023-05-02T03:53:50;9.30;99.90
17845;DHT22;9047;53.486;10.218;2023-05-02T03:56:18;9.20;99.90
17845;DHT22;9047;53.486;10.218;2023-05-02T03:58:47;9.00;99.90
17845;DHT22;9047;53.486;10.218;2023-05-02T04:01:15;8.90;99.90
17845;DHT22;9047;53.486;10.218;2023-05-02T04:03:42;8.70;99.90
17845;DHT22;9047;53.486;10.218;2023-05-02T04:06:09;8.60;99.90
17845;DHT22;9047;53.486;10.218;2023-05-02T04:08:39;8.60;99.90
17845;DHT22;9047;53.486;10.218;2023-05-02T04:11:08;8.60;99.90
17845;DHT22;9047;53.486;10.218;2023-05-02T04:13:36;8.60;99.90
17845;DHT22;9047;53.486;10.218;2023-05-02T04:16:04;8.50;99.90
17845;DHT22;9047;53.486;10.218;2023-05-02T04:18:31;8.50;99.90
17845;DHT22;9047;53.486;10.218;2023-05-02T04:20:57;8.50;99.90
17845;DHT22;9047;53.486;10.218;2023-05-02T04:23:25;8.50;99.90
17845;DHT22;9047;53.486;10.218;2023-05-02T04:25:53;8.50;99.90
17845;DHT22;9047;53.486;10.218;2023-05-02T04:28:38;8.40;99.90
17845;DHT22;9047;53.486;10.218;2023-05-02T04:31:06;8.50;99.90
17845;DHT22;9047;53.486;10.218;2023-05-02T04:33:34;8.50;99.90
17845;DHT22;9047;53.486;10.218;2023-05-02T04:36:02;8.40;99.90
17845;DHT22;9047;53.486;10.218;2023-05-02T04:38:29;8.40;99.90
17845;DHT22;9047;53.486;10.218;2023-05-02T04:40:57;8.40;99.90
17845;DHT22;9047;53.486;10.218;2023-05-02T04:43:41;8.30;99.90
17845;DHT22;9047;53.486;10.218;2023-05-02T04:46:09;8.40;99.90
17845;DHT22;9047;53.486;10.218;2023-05-02T04:48:37;8.40;99.90
17845;DHT22;9047;53.486;10.218;2023-05-02T04:51:08;8.50;99.90
17845;DHT22;9047;53.486;10.218;2023-05-02T04:53:35;8.60;99.90
17845;DHT22;9047;53.486;10.218;2023-05-02T04:56:04;8.60;99.90
17845;DHT22;9047;53.486;10.218;2023-05-02T04:58:31;8.60;99.90
17845;DHT22;9047;53.486;10.218;2023-05-02T05:01:04;8.70;99.90
17845;DHT22;9047;53.486;10.218;2023-05-02T05:03:31;8.70;99.90
17845;DHT22;9047;53.486;10.218;2023-05-02T05:06:01;8.80;99.90
17845;DHT22;9047;53.486;10.218;2023-05-02T05:08:29;8.80;99.90
17845;DHT22;9047;53.486;10.218;2023-05-02T05:10:56;8.80;99.90
17845;DHT22;9047;53.486;10.218;2023-05-02T05:13:38;8.90;99.90
17845;DHT22;9047;53.486;10.218;2023-05-02T05:16:09;9.00;99.90
17845;DHT22;9047;53.486;10.218;2023-05-02T05:18:38;9.20;99.90
17845;DHT22;9047;53.486;10.218;2023-05-02T05:21:07;9.20;99.90
17845;DHT22;9047;53.486;10.218;2023-05-02T05:23:34;9.20;99.90
17845;DHT22;9047;53.486;10.218;2023-05-02T05:26:08;9.30;99.90
17845;DHT22;9047;53.486;10.218;2023-05-02T05:28:36;9.30;99.90
17845;DHT22;9047;53.486;10.218;2023-05-02T05:31:07;9.30;99.90
17845;DHT22;9047;53.486;10.218;2023-05-02T05:33:40;9.30;99.90
17845;DHT22;9047;53.486;10.218;2023-05-02T05:36:11;9.20;99.90
17845;DHT22;9047;53.486;10.218;2023-05-02T05:38:39;9.20;99.90
17845;DHT22;9047;53.486;10.218;2023-05-02T05:41:06;9.20;99.90
17845;DHT22;9047;53.486;10.218;2023-05-02T05:43:35;9.30;99.90
17845;DHT22;9047;53.486;10.218;2023-05-02T05:46:03;9.30;99.90
17845;DHT22;9047;53.486;10.218;2023-05-02T05:48:30;9.20;99.90
17845;DHT22;9047;53.486;10.218;2023-05-02T05:51:04;9.10;99.90
17845;DHT22;9047;53.486;10.218;2023-05-02T05:53:32;9.00;99.90
17845;DHT22;9047;53.486;10.218;2023-05-02T05:56:08;9.00;99.90
17845;DHT22;9047;53.486;10.218;2023-05-02T05:58:36;8.90;99.90
17845;DHT22;9047;53.486;10.218;2023-05-02T06:01:03;8.90;99.90
17845;DHT22;9047;53.486;10.218;2023-05-02T06:03:31;8.90;99.90
17845;DHT22;9047;53.486;10.218;2023-05-02T06:05:58;8.80;99.90
17845;DHT22;9047;53.486;10.218;2023-05-02T06:08:28;8.80;99.90
17845;DHT22;9047;53.486;10.218;2023-05-02T06:10:57;8.80;99.90
17845;DHT22;9047;53.486;10.218;2023-05-02T06:13:27;8.60;99.90
17845;DHT22;9047;53.486;10.218;2023-05-02T06:15:53;8.70;99.90
17845;DHT22;9047;53.486;10.218;2023-05-02T06:18:20;8.60;99.90
17845;DHT22;9047;53.486;10.218;2023-05-02T06:20:47;8.70;99.90
17845;DHT22;9047;53.486;10.218;2023-05-02T06:23:15;8.70;99.90
17845;DHT22;9047;53.486;10.218;2023-05-02T06:25:46;8.80;99.90
17845;DHT22;9047;53.486;10.218;2023-05-02T06:28:15;8.70;99.90
17845;DHT22;9047;53.486;10.218;2023-05-02T06:30:42;8.70;99.90
17845;DHT22;9047;53.486;10.218;2023-05-02T06:33:09;8.80;99.90
17845;DHT22;9047;53.486;10.218;2023-05-02T06:35:40;8.80;99.90
17845;DHT22;9047;53.486;10.218;2023-05-02T06:38:07;8.80;99.90
17845;DHT22;9047;53.486;10.218;2023-05-02T06:40:35;9.00;99.90
17845;DHT22;9047;53.486;10.218;2023-05-02T06:43:10;8.90;99.90
17845;DHT22;9047;53.486;10.218;2023-05-02T06:45:38;8.90;99.90
17845;DHT22;9047;53.486;10.218;2023-05-02T06:48:05;9.00;99.90
17845;DHT22;9047;53.486;10.218;2023-05-02T06:50:33;9.00;99.90
17845;DHT22;9047;53.486;10.218;2023-05-02T06:53:01;9.10;99.90
17845;DHT22;9047;53.486;10.218;2023-05-02T06:55:27;9.10;99.90
17845;DHT22;9047;53.486;10.218;2023-05-02T06:58:03;9.10;99.90
17845;DHT22;9047;53.486;10.218;2023-05-02T07:00:32;9.20;99.90
17845;DHT22;9047;53.486;10.218;2023-05-02T07:03:02;9.40;99.90
17845;DHT22;9047;53.486;10.218;2023-05-02T07:05:32;9.20;99.90
17845;DHT22;9047;53.486;10.218;2023-05-02T07:08:01;9.20;99.90
17845;DHT22;9047;53.486;10.218;2023-05-02T07:10:28;9.20;99.90
17845;DHT22;9047;53.486;10.218;2023-05-02T07:12:57;9.10;99.90
17845;DHT22;9047;53.486;10.218;2023-05-02T07:15:24;9.10;99.90
17845;DHT22;9047;53.486;10.218;2023-05-02T07:17:52;9.10;99.90
17845;DHT22;9047;53.486;10.218;2023-05-02T07:20:24;9.20;99.90
17845;DHT22;9047;53.486;10.218;2023-05-02T07:22:58;9.30;99.90
17845;DHT22;9047;53.486;10.218;2023-05-02T07:25:35;9.30;99.90
17845;DHT22;9047;53.486;10.218;2023-05-02T07:28:04;9.30;99.90
17845;DHT22;9047;53.486;10.218;2023-05-02T07:30:32;9.40;99.90
17845;DHT22;9047;53.486;10.218;2023-05-02T07:33:04;9.50;99.90
17845;DHT22;9047;53.486;10.218;2023-05-02T07:35:33;9.60;99.90
17845;DHT22;9047;53.486;10.218;2023-05-02T07:38:02;9.50;99.90
17845;DHT22;9047;53.486;10.218;2023-05-02T07:40:31;9.70;99.90
17845;DHT22;9047;53.486;10.218;2023-05-02T07:43:01;9.70;99.90
17845;DHT22;9047;53.486;10.218;2023-05-02T07:45:29;9.90;99.90
17845;DHT22;9047;53.486;10.218;2023-05-02T07:48:01;9.90;99.90
17845;DHT22;9047;53.486;10.218;2023-05-02T07:50:30;10.00;99.90
17845;DHT22;9047;53.486;10.218;2023-05-02T07:53:01;10.10;99.90
17845;DHT22;9047;53.486;10.218;2023-05-02T07:55:28;10.30;99.90
17845;DHT22;9047;53.486;10.218;2023-05-02T07:57:58;10.30;99.90
17845;DHT22;9047;53.486;10.218;2023-05-02T08:00:31;10.50;99.90
17845;DHT22;9047;53.486;10.218;2023-05-02T08:03:05;10.50;99.90
17845;DHT22;9047;53.486;10.218;2023-05-02T08:05:38;10.60;99.90
17845;DHT22;9047;53.486;10.218;2023-05-02T08:08:05;10.70;99.90
17845;DHT22;9047;53.486;10.218;2023-05-02T08:10:35;10.80;99.90
17845;DHT22;9047;53.486;10.218;2023-05-02T08:13:02;11.00;99.90
17845;DHT22;9047;53.486;10.218;2023-05-02T08:15:29;11.20;99.90
17845;DHT22;9047;53.486;10.218;2023-05-02T08:17:57;11.30;99.90
17845;DHT22;9047;53.486;10.218;2023-05-02T08:20:28;11.40;99.90
17845;DHT22;9047;53.486;10.218;2023-05-02T08:22:57;11.50;99.90
17845;DHT22;9047;53.486;10.218;2023-05-02T08:25:25;11.40;99.90
17845;DHT22;9047;53.486;10.218;2023-05-02T08:27:55;11.40;99.90
17845;DHT22;9047;53.486;10.218;2023-05-02T08:30:22;11.40;99.90
17845;DHT22;9047;53.486;10.218;2023-05-02T08:32:51;11.40;99.90
17845;DHT22;9047;53.486;10.218;2023-05-02T08:35:18;11.50;99.90
17845;DHT22;9047;53.486;10.218;2023-05-02T08:37:46;11.60;99.90
17845;DHT22;9047;53.486;10.218;2023-05-02T08:40:24;11.70;99.90
17845;DHT22;9047;53.486;10.218;2023-05-02T08:42:51;11.80;99.90
17845;DHT22;9047;53.486;10.218;2023-05-02T08:45:37;11.80;99.90
17845;DHT22;9047;53.486;10.218;2023-05-02T08:48:06;11.80;99.90
17845;DHT22;9047;53.486;10.218;2023-05-02T08:50:36;12.00;99.90
17845;DHT22;9047;53.486;10.218;2023-05-02T08:53:04;12.00;99.90
17845;DHT22;9047;53.486;10.218;2023-05-02T08:55:36;12.10;99.90
17845;DHT22;9047;53.486;10.218;2023-05-02T08:58:04;12.30;99.90
17845;DHT22;9047;53.486;10.218;2023-05-02T09:00:32;12.50;99.50
17845;DHT22;9047;53.486;10.218;2023-05-02T09:03:05;12.60;99.50
17845;DHT22;9047;53.486;10.218;2023-05-02T09:05:35;12.60;98.90
17845;DHT22;9047;53.486;10.218;2023-05-02T09:08:06;12.60;99.10
17845;DHT22;9047;53.486;10.218;2023-05-02T09:10:35;12.80;98.50
17845;DHT22;9047;53.486;10.218;2023-05-02T09:13:37;12.90;98.80
17845;DHT22;9047;53.486;10.218;2023-05-02T09:16:07;13.00;98.80
17845;DHT22;9047;53.486;10.218;2023-05-02T09:18:41;13.00;98.80
17845;DHT22;9047;53.486;10.218;2023-05-02T09:21:15;13.30;98.80
17845;DHT22;9047;53.486;10.218;2023-05-02T09:23:45;13.50;98.50
17845;DHT22;9047;53.486;10.218;2023-05-02T09:26:16;13.60;97.80
17845;DHT22;9047;53.486;10.218;2023-05-02T09:28:45;13.50;97.40
17845;DHT22;9047;53.486;10.218;2023-05-02T09:31:14;13.50;97.20
17845;DHT22;9047;53.486;10.218;2023-05-02T09:33:45;13.70;97.20
17845;DHT22;9047;53.486;10.218;2023-05-02T09:36:24;13.70;96.50
17845;DHT22;9047;53.486;10.218;2023-05-02T09:39:08;13.80;96.30
17845;DHT22;9047;53.486;10.218;2023-05-02T09:41:43;13.70;96.70
17845;DHT22;9047;53.486;10.218;2023-05-02T09:44:17;13.80;96.60
17845;DHT22;9047;53.486;10.218;2023-05-02T09:46:47;13.60;96.70
17845;DHT22;9047;53.486;10.218;2023-05-02T09:49:16;13.50;95.90
17845;DHT22;9047;53.486;10.218;2023-05-02T09:51:45;13.40;96.20
17845;DHT22;9047;53.486;10.218;2023-05-02T09:54:12;13.50;96.20
17845;DHT22;9047;53.486;10.218;2023-05-02T09:56:55;13.50;95.80
17845;DHT22;9047;53.486;10.218;2023-05-02T09:59:25;13.50;96.50
17845;DHT22;9047;53.486;10.218;2023-05-02T10:01:58;13.50;96.20
17845;DHT22;9047;53.486;10.218;2023-05-02T10:04:27;13.80;95.60
17845;DHT22;9047;53.486;10.218;2023-05-02T10:06:56;14.00;95.30
17845;DHT22;9047;53.486;10.218;2023-05-02T10:09:25;14.30;95.20
17845;DHT22;9047;53.486;10.218;2023-05-02T10:12:01;14.50;94.90
17845;DHT22;9047;53.486;10.218;2023-05-02T10:14:37;14.80;94.50
17845;DHT22;9047;53.486;10.218;2023-05-02T10:17:11;14.90;94.60
17845;DHT22;9047;53.486;10.218;2023-05-02T10:19:50;14.90;94.20
17845;DHT22;9047;53.486;10.218;2023-05-02T10:22:19;14.80;93.70
17845;DHT22;9047;53.486;10.218;2023-05-02T10:24:51;14.50;93.90
17845;DHT22;9047;53.486;10.218;2023-05-02T10:27:21;14.60;94.10
17845;DHT22;9047;53.486;10.218;2023-05-02T10:29:51;14.70;93.80
17845;DHT22;9047;53.486;10.218;2023-05-02T10:32:23;14.80;94.10
17845;DHT22;9047;53.486;10.218;2023-05-02T10:35:01;14.80;94.40
17845;DHT22;9047;53.486;10.218;2023-05-02T10:37:29;14.80;94.40
17845;DHT22;9047;53.486;10.218;2023-05-02T10:39:59;14.70;94.40
17845;DHT22;9047;53.486;10.218;2023-05-02T10:42:43;14.60;95.00
17845;DHT22;9047;53.486;10.218;2023-05-02T10:45:32;14.40;95.10
17845;DHT22;9047;53.486;10.218;2023-05-02T10:48:17;14.20;95.50
17845;DHT22;9047;53.486;10.218;2023-05-02T10:50:53;13.90;95.60
17845;DHT22;9047;53.486;10.218;2023-05-02T10:53:54;13.70;96.00
17845;DHT22;9047;53.486;10.218;2023-05-02T10:57:07;13.60;96.50
17845;DHT22;9047;53.486;10.218;2023-05-02T10:59:44;13.60;96.90
17845;DHT22;9047;53.486;10.218;2023-05-02T11:02:49;13.60;95.20
17845;DHT22;9047;53.486;10.218;2023-05-02T11:05:30;13.60;95.70
17845;DHT22;9047;53.486;10.218;2023-05-02T11:08:29;13.60;96.10
17845;DHT22;9047;53.486;10.218;2023-05-02T11:14:06;13.90;95.20
17845;DHT22;9047;53.486;10.218;2023-05-02T11:17:06;14.10;94.90
17845;DHT22;9047;53.486;10.218;2023-05-02T11:22:35;14.30;95.20
17845;DHT22;9047;53.486;10.218;2023-05-02T11:25:05;14.40;94.90
17845;DHT22;9047;53.486;10.218;2023-05-02T11:27:56;14.40;94.80
17845;DHT22;9047;53.486;10.218;2023-05-02T11:30:40;14.30;94.90
17845;DHT22;9047;53.486;10.218;2023-05-02T11:33:18;14.50;94.70
17845;DHT22;9047;53.486;10.218;2023-05-02T11:35:49;14.50;94.80
17845;DHT22;9047;53.486;10.218;2023-05-02T11:38:39;14.40;94.70
17845;DHT22;9047;53.486;10.218;2023-05-02T11:41:09;14.50;95.10
17845;DHT22;9047;53.486;10.218;2023-05-02T11:43:44;14.50;95.30
17845;DHT22;9047;53.486;10.218;2023-05-02T11:46:16;14.30;95.80
17845;DHT22;9047;53.486;10.218;2023-05-02T11:48:50;14.20;95.50
17845;DHT22;9047;53.486;10.218;2023-05-02T11:51:23;13.90;95.90
17845;DHT22;9047;53.486;10.218;2023-05-02T11:54:00;14.00;95.90
17845;DHT22;9047;53.486;10.218;2023-05-02T11:56:36;14.10;95.60
17845;DHT22;9047;53.486;10.218;2023-05-02T11:59:05;14.20;95.40
17845;DHT22;9047;53.486;10.218;2023-05-02T12:01:49;14.10;95.30
17845;DHT22;9047;53.486;10.218;2023-05-02T12:04:22;14.20;95.40
17845;DHT22;9047;53.486;10.218;2023-05-02T12:06:54;14.20;95.10
17845;DHT22;9047;53.486;10.218;2023-05-02T12:09:24;14.20;94.90
17845;DHT22;9047;53.486;10.218;2023-05-02T12:11:52;14.30;95.30
17845;DHT22;9047;53.486;10.218;2023-05-02T12:14:26;14.30;95.20
17845;DHT22;9047;53.486;10.218;2023-05-02T12:16:53;14.20;95.00
17845;DHT22;9047;53.486;10.218;2023-05-02T12:19:24;14.00;95.30
17845;DHT22;9047;53.486;10.218;2023-05-02T12:21:51;14.00;95.80
17845;DHT22;9047;53.486;10.218;2023-05-02T12:24:21;14.10;96.10
17845;DHT22;9047;53.486;10.218;2023-05-02T12:26:48;14.30;96.40
17845;DHT22;9047;53.486;10.218;2023-05-02T12:29:20;14.30;96.40
17845;DHT22;9047;53.486;10.218;2023-05-02T12:31:52;14.60;95.80
17845;DHT22;9047;53.486;10.218;2023-05-02T12:34:32;14.70;94.90
17845;DHT22;9047;53.486;10.218;2023-05-02T12:36:59;15.00;94.30
17845;DHT22;9047;53.486;10.218;2023-05-02T12:39:37;15.10;93.20
17845;DHT22;9047;53.486;10.218;2023-05-02T12:42:11;15.00;93.60
17845;DHT22;9047;53.486;10.218;2023-05-02T12:44:39;14.80;93.80
17845;DHT22;9047;53.486;10.218;2023-05-02T12:47:12;14.70;94.50
17845;DHT22;9047;53.486;10.218;2023-05-02T12:49:54;14.60;93.70
17845;DHT22;9047;53.486;10.218;2023-05-02T12:52:47;14.60;94.40
17845;DHT22;9047;53.486;10.218;2023-05-02T12:55:19;14.40;94.40
17845;DHT22;9047;53.486;10.218;2023-05-02T12:57:46;14.20;94.10
17845;DHT22;9047;53.486;10.218;2023-05-02T13:00:15;14.10;93.70
17845;DHT22;9047;53.486;10.218;2023-05-02T13:02:43;14.10;93.70
17845;DHT22;9047;53.486;10.218;2023-05-02T13:05:18;14.20;93.90
17845;DHT22;9047;53.486;10.218;2023-05-02T13:07:45;14.20;93.80
17845;DHT22;9047;53.486;10.218;2023-05-02T13:10:12;14.20;93.70
17845;DHT22;9047;53.486;10.218;2023-05-02T13:12:42;14.00;93.70
17845;DHT22;9047;53.486;10.218;2023-05-02T13:15:09;13.60;93.90
17845;DHT22;9047;53.486;10.218;2023-05-02T13:17:39;13.50;94.30
17845;DHT22;9047;53.486;10.218;2023-05-02T13:20:11;13.40;94.60
17845;DHT22;9047;53.486;10.218;2023-05-02T13:22:40;13.80;94.20
17845;DHT22;9047;53.486;10.218;2023-05-02T13:25:08;14.00;93.60
17845;DHT22;9047;53.486;10.218;2023-05-02T13:27:34;14.30;93.20
17845;DHT22;9047;53.486;10.218;2023-05-02T13:30:02;14.30;92.20
17845;DHT22;9047;53.486;10.218;2023-05-02T13:32:29;14.20;92.70
17845;DHT22;9047;53.486;10.218;2023-05-02T13:34:55;14.00;93.30
17845;DHT22;9047;53.486;10.218;2023-05-02T13:37:23;14.00;93.40
17845;DHT22;9047;53.486;10.218;2023-05-02T13:39:52;13.90;93.80
17845;DHT22;9047;53.486;10.218;2023-05-02T13:42:19;13.70;94.10
17845;DHT22;9047;53.486;10.218;2023-05-02T13:44:47;13.60;94.50
17845;DHT22;9047;53.486;10.218;2023-05-02T13:47:14;13.30;94.70
17845;DHT22;9047;53.486;10.218;2023-05-02T13:49:43;13.20;95.10
17845;DHT22;9047;53.486;10.218;2023-05-02T13:52:12;13.10;95.30
17845;DHT22;9047;53.486;10.218;2023-05-02T13:54:39;13.00;95.80
17845;DHT22;9047;53.486;10.218;2023-05-02T13:57:07;13.10;96.00
17845;DHT22;9047;53.486;10.218;2023-05-02T13:59:37;13.20;96.10
17845;DHT22;9047;53.486;10.218;2023-05-02T14:02:05;13.40;95.70
17845;DHT22;9047;53.486;10.218;2023-05-02T14:04:38;13.50;95.50
17845;DHT22;9047;53.486;10.218;2023-05-02T14:07:08;13.50;95.40
17845;DHT22;9047;53.486;10.218;2023-05-02T14:09:38;13.40;95.60
17845;DHT22;9047;53.486;10.218;2023-05-02T14:12:07;13.30;95.30
17845;DHT22;9047;53.486;10.218;2023-05-02T14:14:36;13.30;95.80
17845;DHT22;9047;53.486;10.218;2023-05-02T14:17:03;13.20;95.80
17845;DHT22;9047;53.486;10.218;2023-05-02T14:19:31;13.10;95.70
17845;DHT22;9047;53.486;10.218;2023-05-02T14:22:04;13.10;95.40
17845;DHT22;9047;53.486;10.218;2023-05-02T14:24:31;13.00;95.60
17845;DHT22;9047;53.486;10.218;2023-05-02T14:27:04;12.90;95.60
17845;DHT22;9047;53.486;10.218;2023-05-02T14:29:33;12.70;96.20
17845;DHT22;9047;53.486;10.218;2023-05-02T14:32:00;12.50;96.40
17845;DHT22;9047;53.486;10.218;2023-05-02T14:34:28;12.50;96.80
17845;DHT22;9047;53.486;10.218;2023-05-02T14:36:55;12.40;96.90
17845;DHT22;9047;53.486;10.218;2023-05-02T14:39:25;12.30;97.30
17845;DHT22;9047;53.486;10.218;2023-05-02T14:41:52;12.20;97.40
17845;DHT22;9047;53.486;10.218;2023-05-02T14:44:22;12.10;97.70
17845;DHT22;9047;53.486;10.218;2023-05-02T14:46:54;12.10;97.60
17845;DHT22;9047;53.486;10.218;2023-05-02T14:49:26;12.00;97.80
17845;DHT22;9047;53.486;10.218;2023-05-02T14:51:54;12.00;97.50
17845;DHT22;9047;53.486;10.218;2023-05-02T14:54:25;12.00;97.60
17845;DHT22;9047;53.486;10.218;2023-05-02T14:56:52;12.20;98.30
17845;DHT22;9047;53.486;10.218;2023-05-02T14:59:19;12.20;98.30
17845;DHT22;9047;53.486;10.218;2023-05-02T15:01:46;12.30;97.90
17845;DHT22;9047;53.486;10.218;2023-05-02T15:04:16;12.30;97.70
17845;DHT22;9047;53.486;10.218;2023-05-02T15:06:45;12.10;97.60
17845;DHT22;9047;53.486;10.218;2023-05-02T15:09:13;12.00;97.30
17845;DHT22;9047;53.486;10.218;2023-05-02T15:11:42;12.00;97.10
17845;DHT22;9047;53.486;10.218;2023-05-02T15:14:10;11.90;96.90
17845;DHT22;9047;53.486;10.218;2023-05-02T15:16:39;12.00;96.50
17845;DHT22;9047;53.486;10.218;2023-05-02T15:19:08;12.00;96.20
17845;DHT22;9047;53.486;10.218;2023-05-02T15:21:39;12.10;96.30
17845;DHT22;9047;53.486;10.218;2023-05-02T15:24:06;12.10;96.80
17845;DHT22;9047;53.486;10.218;2023-05-02T15:26:33;12.20;97.00
17845;DHT22;9047;53.486;10.218;2023-05-02T15:29:01;12.30;97.10
17845;DHT22;9047;53.486;10.218;2023-05-02T15:31:30;12.50;97.00
17845;DHT22;9047;53.486;10.218;2023-05-02T15:33:58;12.40;96.50
17845;DHT22;9047;53.486;10.218;2023-05-02T15:36:26;12.40;96.00
17845;DHT22;9047;53.486;10.218;2023-05-02T15:38:57;12.50;96.00
17845;DHT22;9047;53.486;10.218;2023-05-02T15:41:24;12.70;95.90
17845;DHT22;9047;53.486;10.218;2023-05-02T15:43:53;12.90;95.60
17845;DHT22;9047;53.486;10.218;2023-05-02T15:46:21;13.10;95.10
17845;DHT22;9047;53.486;10.218;2023-05-02T15:48:48;13.40;94.50
17845;DHT22;9047;53.486;10.218;2023-05-02T15:51:16;13.60;93.70
17845;DHT22;9047;53.486;10.218;2023-05-02T15:53:43;13.90;93.80
17845;DHT22;9047;53.486;10.218;2023-05-02T15:56:15;14.20;94.00
17845;DHT22;9047;53.486;10.218;2023-05-02T15:58:42;14.40;92.80
17845;DHT22;9047;53.486;10.218;2023-05-02T16:01:09;14.40;92.70
17845;DHT22;9047;53.486;10.218;2023-05-02T16:03:36;14.40;93.10
17845;DHT22;9047;53.486;10.218;2023-05-02T16:06:04;14.40;93.50